createdAt,value
2023-01-07T00:01:16.997Z,7.31
2023-01-07T00:05:10.241Z,7.22
2023-01-07T00:09:05.034Z,7.29
2023-01-07T00:12:57.584Z,7.41
2023-01-07T00:16:50.354Z,7.20
2023-01-07T00:20:42.867Z,7.15
2023-01-07T00:24:35.572Z,7.22
2023-01-07T00:28:28.203Z,7.27
2023-01-07T00:32:21.178Z,7.41
2023-01-07T00:36:13.999Z,7.41
2023-01-07T00:40:07.402Z,7.45
2023-01-07T00:44:00.202Z,7.54
2023-01-07T00:47:55.405Z,7.48
2023-01-07T00:51:48.105Z,7.35
2023-01-07T00:55:40.825Z,7.39
2023-01-07T00:59:33.603Z,7.44
2023-01-07T01:03:26.886Z,7.55
2023-01-07T01:07:19.850Z,7.63
2023-01-07T01:11:14.428Z,7.75
2023-01-07T01:15:10.828Z,7.85
2023-01-07T01:19:03.585Z,8.00
2023-01-07T01:22:56.374Z,8.03
2023-01-07T01:26:48.828Z,8.01
2023-01-07T01:30:41.601Z,8.05
2023-01-07T01:34:34.245Z,8.10
2023-01-07T01:38:26.951Z,8.08
2023-01-07T01:42:24.291Z,8.08
2023-01-07T01:46:29.206Z,8.10
2023-01-07T01:50:33.259Z,8.04
2023-01-07T01:54:26.587Z,7.96
2023-01-07T01:58:24.533Z,8.03
2023-01-07T02:02:23.022Z,7.98
2023-01-07T02:06:26.417Z,8.01
2023-01-07T02:10:23.166Z,7.91
2023-01-07T02:14:18.827Z,7.94
2023-01-07T02:18:30.675Z,7.94
2023-01-07T02:22:54.331Z,7.91
2023-01-07T02:27:02.359Z,7.83
2023-01-07T02:31:14.972Z,7.85
2023-01-07T02:35:36.825Z,7.83
2023-01-07T02:39:44.454Z,7.82
2023-01-07T02:43:53.139Z,7.82
2023-01-07T02:48:02.447Z,7.77
2023-01-07T02:51:55.106Z,7.69
2023-01-07T02:56:06.410Z,7.66
2023-01-07T03:00:27.967Z,7.61
2023-01-07T03:04:47.794Z,7.62
2023-01-07T03:09:12.051Z,7.67
2023-01-07T03:13:08.283Z,7.58
2023-01-07T03:17:05.295Z,7.59
2023-01-07T03:21:02.151Z,7.73
2023-01-07T03:24:58.146Z,7.72
2023-01-07T03:28:52.854Z,7.85
2023-01-07T03:32:58.032Z,7.69
2023-01-07T03:36:57.611Z,7.61
2023-01-07T03:40:51.424Z,7.54
2023-01-07T03:44:44.424Z,7.41
2023-01-07T03:48:36.872Z,7.36
2023-01-07T03:52:29.911Z,7.39
2023-01-07T03:56:22.621Z,7.24
2023-01-07T04:00:15.982Z,7.20
2023-01-07T04:04:08.782Z,7.07
2023-01-07T04:08:01.424Z,6.97
2023-01-07T04:11:54.116Z,7.03
2023-01-07T04:15:47.079Z,6.93
2023-01-07T04:19:39.991Z,6.93
2023-01-07T04:23:32.463Z,6.79
2023-01-07T04:27:25.075Z,6.71
2023-01-07T04:31:18.058Z,6.65
2023-01-07T04:35:10.764Z,6.62
2023-01-07T04:39:03.609Z,6.55
2023-01-07T04:42:56.318Z,6.49
2023-01-07T04:46:48.898Z,6.41
2023-01-07T04:50:41.545Z,6.41
2023-01-07T04:54:34.093Z,6.44
2023-01-07T04:58:26.924Z,6.27
2023-01-07T05:02:19.545Z,6.17
2023-01-07T05:06:12.312Z,6.17
2023-01-07T05:10:05.592Z,6.22
2023-01-07T05:14:00.860Z,6.18
2023-01-07T05:17:53.718Z,6.08
2023-01-07T05:21:46.364Z,6.25
2023-01-07T05:25:38.914Z,6.34
2023-01-07T05:29:31.891Z,6.31
2023-01-07T05:33:24.636Z,6.28
2023-01-07T05:37:17.477Z,6.29
2023-01-07T05:41:10.307Z,6.21
2023-01-07T05:45:02.816Z,6.21
2023-01-07T05:48:55.712Z,6.21
2023-01-07T05:52:48.187Z,6.17
2023-01-07T05:56:41.071Z,6.13
2023-01-07T06:00:35.181Z,6.18
2023-01-07T06:04:28.685Z,6.01
2023-01-07T06:08:21.418Z,5.97
2023-01-07T06:12:13.959Z,5.97
2023-01-07T06:16:09.411Z,6.10
2023-01-07T06:20:02.398Z,6.06
2023-01-07T06:23:56.190Z,5.77
2023-01-07T06:27:48.987Z,5.73
2023-01-07T06:31:41.872Z,5.71
2023-01-07T06:35:34.476Z,5.67
2023-01-07T06:39:27.111Z,5.69
2023-01-07T06:43:19.848Z,5.76
2023-01-07T06:47:12.655Z,5.71
2023-01-07T06:51:05.449Z,5.60
2023-01-07T06:54:58.136Z,5.51
2023-01-07T06:58:50.798Z,5.43
2023-01-07T07:02:43.404Z,5.42
2023-01-07T07:06:36.123Z,5.53
2023-01-07T07:10:28.903Z,5.63
2023-01-07T07:14:21.799Z,5.70
2023-01-07T07:18:14.702Z,5.66
2023-01-07T07:22:07.294Z,5.73
2023-01-07T07:25:59.726Z,5.74
2023-01-07T07:29:52.219Z,5.85
2023-01-07T07:33:45.059Z,5.71
2023-01-07T07:37:38.356Z,5.81
2023-01-07T07:41:31.643Z,5.80
2023-01-07T07:45:24.540Z,5.89
2023-01-07T07:49:17.197Z,5.98
2023-01-07T07:53:10.658Z,5.93
2023-01-07T07:57:04.087Z,6.11
2023-01-07T08:00:56.836Z,6.24
2023-01-07T08:04:49.700Z,6.28
2023-01-07T08:08:42.910Z,6.31
2023-01-07T08:12:39.633Z,6.44
2023-01-07T08:16:32.337Z,6.52
2023-01-07T08:20:25.179Z,6.72
2023-01-07T08:24:18.036Z,6.93
2023-01-07T08:28:11.756Z,7.04
2023-01-07T08:32:04.588Z,7.10
2023-01-07T08:35:57.207Z,7.15
2023-01-07T08:39:50.166Z,7.31
2023-01-07T08:43:45.023Z,7.35
2023-01-07T08:47:37.842Z,7.51
2023-01-07T08:51:30.817Z,7.56
2023-01-07T08:55:24.361Z,7.69
2023-01-07T08:59:17.157Z,7.83
2023-01-07T09:03:12.267Z,7.91
2023-01-07T09:07:04.737Z,8.01
2023-01-07T09:10:57.525Z,7.93
2023-01-07T09:14:50.204Z,7.90
2023-01-07T09:18:42.847Z,7.86
2023-01-07T09:22:37.262Z,7.83
2023-01-07T09:26:29.950Z,7.85
2023-01-07T09:30:22.522Z,7.85
2023-01-07T09:34:15.266Z,7.96
2023-01-07T09:38:08.059Z,8.07
2023-01-07T09:42:33.918Z,8.01
2023-01-07T09:46:27.463Z,8.01
2023-01-07T09:50:35.627Z,8.04
2023-01-07T09:54:32.929Z,8.11
2023-01-07T09:58:25.862Z,8.18
2023-01-07T10:02:27.728Z,8.15
2023-01-07T10:06:43.112Z,8.18
2023-01-07T10:10:48.876Z,8.21
2023-01-07T10:15:09.412Z,8.25
2023-01-07T10:19:14.196Z,8.40
2023-01-07T10:23:19.800Z,8.45
2023-01-07T10:27:15.842Z,8.51
2023-01-07T10:31:24.476Z,8.65
2023-01-07T10:35:21.458Z,8.62
2023-01-07T10:39:52.602Z,8.65
2023-01-07T10:44:23.429Z,8.73
2023-01-07T10:48:41.608Z,8.77
2023-01-07T10:52:49.264Z,8.83
2023-01-07T10:56:45.513Z,8.84
2023-01-07T11:00:39.577Z,8.83
2023-01-07T11:04:32.168Z,8.90
2023-01-07T11:08:32.790Z,8.87
2023-01-07T11:12:54.189Z,8.97
2023-01-07T11:16:51.841Z,8.97
2023-01-07T11:20:53.785Z,9.03
2023-01-07T11:24:46.569Z,9.04
2023-01-07T11:28:58.105Z,9.23
2023-01-07T11:33:06.018Z,9.18
2023-01-07T11:36:58.516Z,9.23
2023-01-07T11:41:00.673Z,9.23
2023-01-07T11:45:18.076Z,9.24
2023-01-07T11:49:28.131Z,9.28
2023-01-07T11:53:30.207Z,9.32
2023-01-07T11:57:25.708Z,9.34
2023-01-07T12:01:21.125Z,9.35
2023-01-07T12:05:21.903Z,9.41
2023-01-07T12:09:25.869Z,9.42
2023-01-07T12:13:23.658Z,9.44
2023-01-07T12:17:20.650Z,9.48
2023-01-07T12:21:32.706Z,9.48
2023-01-07T12:25:49.257Z,9.51
2023-01-07T12:30:02.075Z,9.51
2023-01-07T12:34:27.976Z,9.54
2023-01-07T12:38:45.860Z,9.66
2023-01-07T12:42:43.651Z,9.72
2023-01-07T12:47:32.108Z,9.78
2023-01-07T12:51:21.019Z,9.82
2023-01-07T12:55:17.542Z,9.85
2023-01-07T12:59:47.198Z,9.93
2023-01-07T13:04:21.673Z,10.11
2023-01-07T13:08:37.832Z,9.97
2023-01-07T13:12:45.356Z,10.00
2023-01-07T13:16:38.265Z,10.06
2023-01-07T13:20:44.008Z,10.03
2023-01-07T13:24:54.835Z,10.00
2023-01-07T13:28:52.583Z,9.99
2023-01-07T13:32:59.521Z,10.02
2023-01-07T13:37:35.033Z,10.36
2023-01-07T13:41:38.948Z,10.34
2023-01-07T13:45:34.604Z,10.14
2023-01-07T13:49:30.072Z,10.07
2023-01-07T13:53:26.501Z,10.06
2023-01-07T13:57:31.503Z,10.11
2023-01-07T14:01:26.969Z,10.22
2023-01-07T14:05:19.733Z,10.18
2023-01-07T14:09:20.022Z,10.03
2023-01-07T14:13:34.061Z,10.27
2023-01-07T14:17:37.068Z,10.21
2023-01-07T14:21:57.286Z,10.11
2023-01-07T14:26:27.524Z,10.09
2023-01-07T14:30:51.622Z,10.06
2023-01-07T14:34:54.759Z,10.02
2023-01-07T14:38:59.008Z,10.02
2023-01-07T14:42:59.197Z,10.09
2023-01-07T14:46:52.708Z,9.93
2023-01-07T14:51:09.774Z,9.89
2023-01-07T14:55:44.226Z,9.79
2023-01-07T15:00:00.751Z,9.86
2023-01-07T15:04:02.463Z,9.78
2023-01-07T15:08:20.596Z,9.76
2023-01-07T15:12:40.056Z,9.54
2023-01-07T15:16:35.824Z,9.51
2023-01-07T15:20:46.518Z,9.44
2023-01-07T15:24:45.091Z,9.39
2023-01-07T15:29:05.473Z,9.54
2023-01-07T15:33:26.015Z,9.41
2023-01-07T15:37:19.407Z,9.39
2023-01-07T15:41:30.801Z,9.28
2023-01-07T15:45:27.062Z,9.26
2023-01-07T15:49:26.157Z,9.18
2023-01-07T15:53:25.449Z,9.10
2023-01-07T15:57:27.500Z,9.24
2023-01-07T16:01:23.820Z,8.84
2023-01-07T16:05:19.681Z,8.80
2023-01-07T16:09:21.767Z,8.76
2023-01-07T16:13:18.513Z,8.76
2023-01-07T16:17:15.899Z,8.73
2023-01-07T16:21:14.636Z,8.68
2023-01-07T16:25:16.443Z,8.45
2023-01-07T16:29:16.229Z,8.41
2023-01-07T16:33:16.145Z,8.41
2023-01-07T16:37:16.107Z,8.44
2023-01-07T16:41:19.343Z,8.34
2023-01-07T16:45:25.781Z,8.11
2023-01-07T16:49:26.494Z,8.14
2023-01-07T16:53:33.556Z,8.13
2023-01-07T16:57:40.331Z,7.79
2023-01-07T17:01:35.593Z,7.66
2023-01-07T17:05:31.094Z,7.73
2023-01-07T17:09:41.849Z,7.59
2023-01-07T17:13:38.249Z,7.44
2023-01-07T17:17:34.473Z,7.38
2023-01-07T17:21:42.690Z,7.05
2023-01-07T17:25:35.674Z,7.15
2023-01-07T17:29:36.071Z,6.94
2023-01-07T17:33:28.955Z,6.72
2023-01-07T17:37:22.168Z,6.66
2023-01-07T17:41:36.732Z,6.38
2023-01-07T17:45:29.694Z,6.32
2023-01-07T17:49:22.553Z,6.28
2023-01-07T17:53:30.910Z,6.08
2023-01-07T17:57:23.671Z,6.15
2023-01-07T18:01:22.883Z,6.17
2023-01-07T18:05:18.796Z,5.97
2023-01-07T18:09:13.778Z,6.14
2023-01-07T18:13:06.622Z,6.13
2023-01-07T18:16:59.584Z,5.87
2023-01-07T18:20:54.646Z,5.96
2023-01-07T18:24:48.690Z,5.87
2023-01-07T18:28:42.045Z,6.04
2023-01-07T18:32:34.709Z,5.97
2023-01-07T18:36:27.317Z,6.06
2023-01-07T18:40:20.675Z,5.91
2023-01-07T18:44:13.562Z,5.96
2023-01-07T18:48:06.500Z,5.87
2023-01-07T18:51:59.247Z,5.87
2023-01-07T18:55:59.531Z,5.96
2023-01-07T18:59:52.450Z,6.10
2023-01-07T19:03:45.228Z,5.90
2023-01-07T19:07:38.481Z,6.03
2023-01-07T19:11:31.786Z,6.01
2023-01-07T19:15:25.721Z,5.93
2023-01-07T19:19:18.352Z,5.98
2023-01-07T19:23:10.977Z,5.97
2023-01-07T19:27:03.963Z,6.00
2023-01-07T19:30:56.711Z,6.04
2023-01-07T19:34:52.460Z,5.98
2023-01-07T19:38:49.312Z,5.90
2023-01-07T19:42:42.206Z,6.00
2023-01-07T19:46:37.732Z,6.00
2023-01-07T19:50:30.585Z,5.98
2023-01-07T19:54:23.254Z,6.01
2023-01-07T19:58:16.712Z,5.93
2023-01-07T20:02:12.855Z,5.94
2023-01-07T20:06:11.601Z,6.04
2023-01-07T20:10:04.693Z,6.20
2023-01-07T20:13:57.328Z,6.06
2023-01-07T20:17:50.017Z,6.08
2023-01-07T20:21:43.667Z,6.08
2023-01-07T20:25:36.215Z,6.01
2023-01-07T20:29:29.177Z,6.08
2023-01-07T20:33:21.880Z,6.11
2023-01-07T20:37:14.414Z,6.10
2023-01-07T20:41:11.471Z,6.11
2023-01-07T20:45:04.612Z,6.11
2023-01-07T20:48:57.662Z,6.10
2023-01-07T20:52:50.463Z,6.13
2023-01-07T20:56:43.123Z,6.08
2023-01-07T21:00:36.247Z,6.08
2023-01-07T21:04:29.241Z,6.01
2023-01-07T21:08:21.930Z,6.13
2023-01-07T21:12:15.099Z,6.10
2023-01-07T21:16:08.361Z,6.15
2023-01-07T21:20:01.635Z,6.11
2023-01-07T21:23:54.634Z,6.20
2023-01-07T21:27:48.714Z,6.17
2023-01-07T21:31:41.816Z,6.14
2023-01-07T21:35:34.622Z,6.10
2023-01-07T21:39:27.341Z,6.17
2023-01-07T21:43:20.338Z,6.17
2023-01-07T21:47:12.857Z,6.10
2023-01-07T21:51:12.829Z,6.21
2023-01-07T21:55:05.895Z,6.21
2023-01-07T21:58:59.518Z,6.36
2023-01-07T22:02:52.176Z,6.15
2023-01-07T22:06:45.046Z,6.14
2023-01-07T22:10:37.750Z,6.27
2023-01-07T22:14:30.337Z,6.32
2023-01-07T22:18:23.278Z,6.24
2023-01-07T22:22:16.873Z,6.03
2023-01-07T22:26:10.393Z,5.91
2023-01-07T22:30:03.692Z,6.06
2023-01-07T22:33:57.691Z,6.17
2023-01-07T22:37:51.378Z,6.25
2023-01-07T22:41:44.283Z,6.15
2023-01-07T22:45:40.733Z,6.22
2023-01-07T22:49:33.739Z,6.14
2023-01-07T22:53:29.272Z,6.13
2023-01-07T22:57:22.157Z,6.20
2023-01-07T23:01:16.906Z,6.11
2023-01-07T23:05:10.101Z,6.08
2023-01-07T23:09:03.380Z,6.14
2023-01-07T23:12:55.921Z,6.31
2023-01-07T23:16:49.683Z,6.27
2023-01-07T23:20:43.721Z,6.36
2023-01-07T23:24:36.624Z,6.27
2023-01-07T23:28:29.361Z,6.39
2023-01-07T23:32:22.239Z,6.42
2023-01-07T23:36:15.181Z,6.34
2023-01-07T23:40:09.269Z,6.59
2023-01-07T23:44:02.217Z,6.49
2023-01-07T23:47:55.072Z,6.39
2023-01-07T23:51:47.705Z,6.25
2023-01-07T23:55:40.432Z,6.34
2023-01-07T23:59:33.304Z,6.41
